Tiempo atmosférico en la estación meteorológica de Herrera Del Duque, Badajoz (447 m.)



Fecha
DESCASC
Temp. máxima en grados centígrados (hora)
DESCASC
Temp. mínima en grados centígrados (hora)
DESCASC
Temp. media en grados centígrados
DESCASC
Racha de viento máxima en m/sg (hora)
DESCASC
Velocidad máxima media en intervalos de 10 minutos(hora)
DESCASC
Precipitaciones diarias en mm
DESCASC
Precipitaciones de 00:00 a 06:00 en mm
DESCASC
Precipitaciones de 06:00 a 12:00 en mm
DESCASC
Precipitaciones de 12:00 a 18:00 en mm
DESCASC
Precipitaciones de 18:00 a 24:00 en mm
DESCASC
06-07-2020 -- (--) -- (--) -- -- (--) -- (--) -- -- -- -- --
05-07-2020 -- (--) -- (--) -- -- (--) -- (--) -- -- 0 -- --
04-07-2020 -- (--) -- (--) -- -- (--) -- (--) -- -- 0 -- --
03-07-2020 -- (--) -- (--) -- -- (--) -- (--) -- -- 0 -- --
02-07-2020 -- (--) -- (--) -- -- (--) -- (--) -- 0 0 0 --
01-07-2020 35.5 (18:40) 20.3 (00:00) 27.9 8.89 (16:30) 5 (13:40) 0 0 0 0 0
30-06-2020 38.8 (16:40) 20.6 (00:00) 29.7 -- (--) -- (--) 0 0 0 0 0
29-06-2020 38 (18:00) 19.1 (00:00) 28.6 8.61 (16:00) 4.44 (16:00) 0 0 0 0 0
28-06-2020 35.7 (19:10) 17.4 (00:00) 26.6 9.17 (17:00) 4.72 (17:00) 0 0 0 0 0
27-06-2020 32.7 (18:50) 17.7 (00:00) 25.2 8.89 (18:30) 3.89 (16:50) 0 0 0 0 0
26-06-2020 29.9 (17:10) 18.3 (00:00) 24.1 10.28 (16:40) 5.83 (03:40) 0 0 0 0 0
25-06-2020 35.8 (18:10) 22 (00:00) 28.9 -- (--) -- (--) 0 0 0 0 0
24-06-2020 38 (18:20) 22.7 (00:00) 30.4 -- (--) -- (--) 0 0 0 0 0
23-06-2020 -- (--) -- (--) -- -- (--) -- (--) -- -- -- -- 0
22-06-2020 39.1 (18:20) 15.9 (00:00) 27.5 10.83 (16:10) 3.61 (17:00) 0 0 0 0 0
21-06-2020 35.2 (18:40) 16.2 (00:00) 25.7 7.22 (15:20) 3.89 (16:50) 0 0 0 0 0
20-06-2020 33.2 (17:30) 13.5 (00:00) 23.4 8.89 (16:40) 5.28 (16:40) 0 0 0 0 0
19-06-2020 30.6 (17:30) 15.6 (00:00) 23.1 9.17 (14:00) 5.28 (15:20) 0 0 0 0 0
18-06-2020 29.6 (18:40) 13.6 (00:00) 21.6 8.06 (18:00) 4.72 (14:00) 0 0 0 0 0
17-06-2020 27.1 (18:30) 13.3 (00:00) 20.2 8.61 (16:20) 5 (07:30) 0 0 0 0 0
16-06-2020 28.3 (17:40) 14.5 (00:00) 21.4 11.11 (18:40) 6.11 (15:50) 0 0 0 0 0
15-06-2020 27.2 (17:50) 12.5 (00:00) 19.9 10.56 (15:40) 5.28 (15:20) 0 0 0 0 0
14-06-2020 26.6 (19:00) 10.3 (00:00) 18.5 10.56 (19:10) 5.56 (18:00) 0 0 0 0 0
13-06-2020 24.9 (17:30) 11 (00:00) 17.9 9.72 (17:10) 4.72 (17:20) 0 0 0 0 0
12-06-2020 22.7 (18:50) 10.7 (00:00) 16.7 13.89 (20:10) 7.78 (20:30) 0 0 0 0 0
11-06-2020 24.7 (16:00) 13.2 (00:00) 19 15.83 (18:00) 8.33 (18:00) 0 0 0 0 0

Gráficas

Temp. máximas Temp. mínimas Temp. medias Precipitaciones Rachas de viento máximas Velocidades máximas media en intervalos de 10 minutos

Datos horarios

Fecha y hora oficial Temperatura (ºC) Velocidad del viento (km/h) Dirección del viento Racha (km/h) Dirección de racha Precipitación (mm) Presión (hPa) Tendencia (hPa) Humedad (%)
2020-07-10 23:00:00 29.7 4 Sur 8 Sur 0 961 1.1 22
2020-07-10 22:00:00 32.1 5 Oeste 12 Norte 0 960.7 0.9 19
2020-07-10 21:00:00 34.9 6 Norte 17 Nordeste 0 960.1 -0.1 14
2020-07-10 20:00:00 36.7 14 Nordeste 26 Nordeste 0 959.9 -0.6 13
2020-07-10 19:00:00 37.4 6 Nordeste 23 Oeste 0 959.8 -1.2 13
2020-07-10 18:00:00 35.8 6 Oeste 26 Noroeste 0 960.2 -1.5 14
2020-07-10 17:00:00 37.2 12 Noroeste 27 Oeste 0 960.5 -2.1 13
2020-07-10 16:00:00 36.6 9 Oeste 29 Oeste 0 961 -1.8 14
2020-07-10 15:00:00 35.8 11 Noroeste 22 Noroeste 0 961.7 -1.3 13
2020-07-10 14:00:00 34.9 7 Sudoeste 19 Oeste 0 962.6 -0.8 14
2020-07-10 13:00:00 33.7 5 Oeste 14 Noroeste 0 962.8 -0.8 18
2020-07-10 12:00:00 32 6 Noroeste 15 Noroeste 0 963 -0.5 21
2020-07-10 11:00:00 29.9 4 Este 12 Sur 0 963.4 0.2 26
2020-07-10 10:00:00 27 3 Norte 8 Oeste 0 963.6 0.6 30
2020-07-10 09:00:00 23.5 4 Oeste 7 Oeste 0 963.5 0.5 34
2020-07-10 08:00:00 20.7 2 Sudeste 5 Sudoeste 0 963.2 0 44
2020-07-10 07:00:00 19.8 4 Sur 7 Sudoeste 0 963 -0.1 44
2020-07-10 06:00:00 20.8 5 Oeste 8 Sudoeste 0 963 -0.6 39
2020-07-10 05:00:00 21.2 5 Sudoeste 7 Sudoeste 0 963.2 -0.4 37
2020-07-10 04:00:00 22.5 0 Calma 8 Sudeste 0 963.1 -- 34
2020-07-10 03:00:00 23.4 3 Sudoeste 29 Sudeste 0 963.6 -- 30
2020-07-10 02:00:00 26.3 18 Este -- -- 0 963.6 -- 25
2020-07-10 01:00:00 26.3 10 Sudeste 18 Sudeste 0 964 -- 24
2020-07-10 00:00:00 26.2 5 Noroeste 13 Sudoeste 0 963.4 -- 28
2020-07-09 23:00:00 27.8 3 Sur 6 Oeste 0 962.7 -- 26
2020-07-09 22:00:00 30.5 5 Sudoeste 21 Oeste 0 961.9 -- 21
2020-07-09 21:00:00 33 13 Oeste 27 Oeste 0 961.6 -- 18
2020-07-09 20:00:00 34.9 14 Oeste 26 Oeste 0 961.2 -- 14
2020-07-09 19:00:00 35.6 13 Noroeste 29 Noroeste 0 961.1 -- 11
2020-07-09 18:00:00 35.9 7 Noroeste 25 Noroeste 0 961.6 -- 11
2020-07-09 17:00:00 36 8 Sur 24 Nordeste 0 962.4 -- 11
2020-07-09 16:00:00 35.2 9 Norte 20 Oeste 0 963 -- 13
2020-07-09 15:00:00 34.6 6 Noroeste 21 Norte 0 963.6 -- 13
2020-07-09 14:00:00 33.8 6 Norte 21 Oeste 0 964 -- 16
2020-07-09 13:00:00 32.1 9 Oeste 23 Noroeste 0 964.5 -- 19
2020-07-09 12:00:00 30.4 7 Oeste 14 Oeste 0 964.7 -- 24
2020-07-09 11:00:00 28.4 4 Oeste 10 Nordeste 0 965 -- 29
2020-07-09 10:00:00 26.4 3 Sur 8 Norte 0 965.2 -- 31
2020-07-09 09:00:00 23.9 4 Norte 8 Norte 0 965 -- 43
2020-07-09 08:00:00 20.7 2 Sudeste 6 Sur 0 964.6 -- 53
2020-07-09 07:00:00 20.7 3 Norte 12 Sudoeste 0 964.1 -- 52
2020-07-09 06:00:00 22.6 7 Sudoeste 20 Sudoeste 0 963.3 -- 45
2020-07-09 05:00:00 21.7 5 Norte 19 Sudoeste 0 963 -- 43
2020-07-09 04:00:00 23.9 6 Sur 14 Sudoeste 0 962.7 -- 28
2020-07-09 03:00:00 23.7 3 Nordeste 13 Sudoeste 0 962.9 -- 26
2020-07-09 02:00:00 24.6 3 Norte 10 Oeste 0 963 -- 24
2020-07-09 01:00:00 26.7 7 Oeste 16 Oeste 0 962.6 -- 21
2020-07-09 00:00:00 27.9 8 Oeste 26 Sudoeste 0 962.3 -- 20
2020-07-08 23:00:00 29.7 17 Sudoeste 31 Oeste 0 961.3 -- 15
2020-07-08 22:00:00 31.1 18 Oeste 31 Oeste 0 960.3 -- 12
2020-07-08 21:00:00 33.5 20 Oeste -- -- 0 959.5 -- 10
2020-07-08 20:00:00 34.7 -- -- -- -- 0 959 -- 13
2020-07-08 19:00:00 36.2 -- -- -- -- 0 958.9 -- 12
2020-07-08 18:00:00 38.3 15 Oeste -- -- 0 958.8 -- 12
2020-07-08 17:00:00 38.3 18 Oeste -- -- 0 959.1 -- 13
2020-07-08 16:00:00 39 13 Sudoeste 30 Oeste 0 959.2 -- 10
2020-07-08 15:00:00 36.9 9 Sudoeste 35 Sudoeste 0 960 -- 14
2020-07-08 14:00:00 37 12 Sudoeste 26 Sudoeste 0 960.7 -- 14
2020-07-08 13:00:00 35.8 9 Sur 20 Sudoeste 0 961.1 -- 17
2020-07-08 12:00:00 34.4 5 Oeste 13 Oeste 0 961.4 -- 20
2020-07-08 11:00:00 30.7 4 Noroeste 8 Oeste 0 961.5 -- 27
2020-07-08 10:00:00 27.6 4 Oeste 10 Oeste 0 961.7 -- 32
2020-07-08 09:00:00 25.5 5 Noroeste 14 Oeste 0 961.3 -- 34
2020-07-08 08:00:00 24.5 4 Noroeste 14 Este 0 961.1 -- 41
2020-07-08 07:00:00 26.1 5 Noroeste 22 Oeste 0 961.1 -- 32
2020-07-08 06:00:00 25.7 13 Oeste 21 Oeste 0 961.4 -- 28
2020-07-08 05:00:00 25.9 3 Nordeste 23 Oeste 0 960.5 -- 31
2020-07-08 04:00:00 24.9 11 Sudoeste 31 Noroeste 0.4 961.4 -- 34
2020-07-08 03:00:00 26.5 9 Oeste 19 Noroeste 0 962 -- 22
2020-07-08 02:00:00 26.3 4 Este 11 Sudoeste 0 961.8 -- 24
2020-07-08 01:00:00 26.1 0 Calma 5 Sudeste 0 962.3 -- 31
2020-07-08 00:00:00 28.8 5 Sudeste 8 Sudeste 0 962.2 -- 18
2020-07-07 23:00:00 30.2 3 Sur 8 Sudeste 0 962.1 -- 14
2020-07-07 22:00:00 33 5 Sudoeste 7 Sudoeste 0 961.7 -- 13
2020-07-07 21:00:00 36.9 5 Oeste 23 Oeste 0 961.7 -- 8
2020-07-07 20:00:00 38.6 15 Oeste 28 Oeste 0 961.7 -1.2 7
2020-07-07 19:00:00 39.4 16 Oeste -- -- 0 961.9 -1 7
2020-07-07 18:00:00 39.5 -- -- -- -- 0 962.4 -0.9 7
2020-07-07 17:00:00 39.3 -- -- -- -- 0 962.9 -0.7 7
2020-07-07 16:00:00 38.7 -- -- -- -- 0 962.9 -0.8 8
2020-07-07 15:00:00 38.7 20 Oeste 38 Oeste 0 963.3 -0.6 11
2020-07-07 14:00:00 38.3 13 Oeste 28 Oeste 0 963.6 -0.2 12
2020-07-07 13:00:00 37.1 9 Oeste 22 Oeste 0 963.7 -0.2 14
2020-07-07 12:00:00 35.4 6 Oeste 14 Oeste 0 963.9 0.1 19
2020-07-07 11:00:00 33.1 4 Noroeste 8 Sudoeste 0 963.8 0.3 19
2020-07-07 10:00:00 30.2 2 Este 6 Nordeste 0 963.9 0.8 23
2020-07-07 09:00:00 26.5 0 Calma 6 Oeste 0 963.8 0.8 27
2020-07-07 08:00:00 22.3 4 Oeste 9 Sudoeste 0 963.5 0.4 37
2020-07-07 07:00:00 20.9 2 Sur 5 Sur 0 963.1 -- 45
2020-07-07 06:00:00 21.6 0 Calma 4 Sudeste 0 963 -- 37
2020-07-07 05:00:00 22.4 2 Sudeste 8 Nordeste 0 963.1 -- 36
2020-07-07 04:00:00 25.1 5 Sudoeste 6 Sudoeste 0 962.9 -- 30
2020-07-07 03:00:00 25.4 4 Sudoeste 8 Sudoeste 0 963.3 -- 28
2020-07-07 02:00:00 -- -- -- -- -- -- -- -- --
2020-07-07 01:00:00 -- -- -- -- -- -- -- -- --
2020-07-07 00:00:00 -- -- -- -- -- -- -- -- --
2020-07-06 23:00:00 -- -- -- -- -- -- -- -- --
2020-07-06 22:00:00 -- -- -- -- -- -- -- -- --
2020-07-06 21:00:00 -- -- -- -- -- -- -- -- --
2020-07-06 20:00:00 -- -- -- -- -- -- -- -- --
2020-07-06 19:00:00 -- -- -- -- -- -- -- -- --
2020-07-06 18:00:00 -- -- -- -- -- -- -- -- --
2020-07-06 17:00:00 -- -- -- -- -- -- -- -- --
2020-07-06 16:00:00 -- -- -- -- -- -- -- -- --
2020-07-06 15:00:00 -- -- -- -- -- -- -- -- --
2020-07-06 14:00:00 -- -- -- -- -- -- -- -- --
2020-07-06 13:00:00 -- -- -- -- -- -- -- -- --
2020-07-06 12:00:00 -- -- -- -- -- -- -- -- --
2020-07-06 11:00:00 -- -- -- -- -- -- -- -- --
2020-07-06 10:00:00 -- -- -- -- -- -- -- -- --
2020-07-06 09:00:00 -- -- -- -- -- -- -- -- --
2020-07-06 08:00:00 -- -- -- -- -- -- -- -- --
2020-07-06 07:00:00 -- -- -- -- -- -- -- -- --
2020-07-06 06:00:00 -- -- -- -- -- -- -- -- --
2020-07-06 05:00:00 -- -- -- -- -- -- -- -- --
2020-07-06 04:00:00 -- -- -- -- -- -- -- -- --
2020-07-06 03:00:00 -- -- -- -- -- -- -- -- --
2020-07-06 02:00:00 -- -- -- -- -- -- -- -- --
2020-07-06 01:00:00 -- -- -- -- -- -- -- -- --
2020-07-06 00:00:00 -- -- -- -- -- -- -- -- --
2020-07-05 23:00:00 -- -- -- -- -- -- -- -- --
2020-07-05 22:00:00 -- -- -- -- -- -- -- -- --
2020-07-05 21:00:00 -- -- -- -- -- -- -- -- --
2020-07-05 20:00:00 -- -- -- -- -- -- -- -- --
2020-07-05 19:00:00 -- -- -- -- -- -- -- -- --
2020-07-05 18:00:00 -- -- -- -- -- -- -- -- --
2020-07-05 17:00:00 -- -- -- -- -- -- -- -- --
2020-07-05 16:00:00 -- -- -- -- -- -- -- -- --
2020-07-05 15:00:00 -- -- -- -- -- -- -- -- --
2020-07-05 14:00:00 -- -- -- -- -- -- -- -- --
2020-07-05 13:00:00 -- -- -- -- -- -- -- -- --
2020-07-05 12:00:00 34.5 5 Sudoeste 13 Nordeste 0 967.6 -- 18
2020-07-05 11:00:00 32.6 5 Nordeste 12 Sudeste 0 967.8 -- 21
2020-07-05 10:00:00 29.9 3 Nordeste 7 Nordeste 0 967.8 -- 19
2020-07-05 09:00:00 26.1 2 Oeste 4 Sudoeste 0 967.5 -- 23
2020-07-05 08:00:00 20.7 3 Sur 5 Sur 0 967.1 -- 42
2020-07-05 07:00:00 19.9 2 Sur 8 Sudoeste 0 966.9 -- 37
2020-07-05 06:00:00 20.8 7 Sudoeste 8 Sudoeste 0 966.8 -- 33
2020-07-05 05:00:00 19.7 0 Calma 6 Sudoeste 0 966.7 -- 34
2020-07-05 04:00:00 21.2 2 Sudoeste 5 Sur 0 967 -- 34
2020-07-05 03:00:00 23.3 4 Sur 7 Sur 0 967.2 -- 30
2020-07-05 02:00:00 -- -- -- -- -- -- -- -- --
2020-07-05 01:00:00 -- -- -- -- -- -- -- -- --
2020-07-05 00:00:00 -- -- -- -- -- -- -- -- --
2020-07-04 23:00:00 -- -- -- -- -- -- -- -- --
2020-07-04 22:00:00 -- -- -- -- -- -- -- -- --
2020-07-04 21:00:00 -- -- -- -- -- -- -- -- --
2020-07-04 20:00:00 -- -- -- -- -- -- -- -- --
2020-07-04 19:00:00 -- -- -- -- -- -- -- -- --
2020-07-04 18:00:00 -- -- -- -- -- -- -- -- --
2020-07-04 17:00:00 -- -- -- -- -- -- -- -- --
2020-07-04 16:00:00 -- -- -- -- -- -- -- -- --
2020-07-04 15:00:00 -- -- -- -- -- -- -- -- --
2020-07-04 14:00:00 -- -- -- -- -- -- -- -- --
2020-07-04 13:00:00 -- -- -- -- -- -- -- -- --
2020-07-04 12:00:00 32 5 Noroeste 12 Noroeste 0 968.9 -- 17
2020-07-04 11:00:00 29 3 Sudoeste 11 Oeste 0 969 -- 23
2020-07-04 10:00:00 25.9 3 Oeste 9 Nordeste 0 968.8 -- 30
2020-07-04 09:00:00 22.8 3 Nordeste 5 Nordeste 0 968.5 -- 38
2020-07-04 08:00:00 18.3 2 Sudeste 4 Sudeste 0 968.4 -- 48
2020-07-04 07:00:00 15.8 3 Sur 4 Norte 0 967.9 -- 58
2020-07-04 06:00:00 17.5 3 Sudoeste 8 Sur 0 967.5 -- 48
2020-07-04 05:00:00 18.7 5 Oeste 8 Sudoeste 0 967.4 -- 43
2020-07-04 04:00:00 19.4 4 Oeste 7 Sudoeste 0 967.4 -- 42
2020-07-04 03:00:00 19.7 0 Calma 6 Sudoeste 0 967.3 -- 37
2020-07-04 02:00:00 -- -- -- -- -- -- -- -- --
2020-07-04 01:00:00 -- -- -- -- -- -- -- -- --
2020-07-04 00:00:00 -- -- -- -- -- -- -- -- --
2020-07-03 23:00:00 -- -- -- -- -- -- -- -- --
2020-07-03 22:00:00 -- -- -- -- -- -- -- -- --
2020-07-03 21:00:00 -- -- -- -- -- -- -- -- --
2020-07-03 20:00:00 -- -- -- -- -- -- -- -- --
2020-07-03 19:00:00 -- -- -- -- -- -- -- -- --
2020-07-03 18:00:00 -- -- -- -- -- -- -- -- --
2020-07-03 17:00:00 -- -- -- -- -- -- -- -- --
2020-07-03 16:00:00 -- -- -- -- -- -- -- -- --
2020-07-03 15:00:00 -- -- -- -- -- -- -- -- --
2020-07-03 14:00:00 -- -- -- -- -- -- -- -- --
2020-07-03 13:00:00 -- -- -- -- -- -- -- -- --
2020-07-03 12:00:00 26.3 6 Norte 11 Noroeste 0 967.5 -- 27
2020-07-03 11:00:00 23.8 4 Oeste 9 Nordeste 0 967.5 -- 33
2020-07-03 10:00:00 21.7 4 Nordeste 8 Nordeste 0 967.5 -- 40
2020-07-03 09:00:00 19.2 4 Nordeste 7 Nordeste 0 967.2 -- 47
2020-07-03 08:00:00 17.1 0 Calma 10 Sudoeste 0 967.1 -- 52
2020-07-03 07:00:00 15.7 5 Sudoeste 10 Sudoeste 0 966.5 -- 56
2020-07-03 06:00:00 16.4 4 Sudeste 16 Sudoeste 0 966.2 -- 53
2020-07-03 05:00:00 17.8 6 Sudoeste 22 Oeste 0 966 -- 48
2020-07-03 04:00:00 19 7 Noroeste 16 Noroeste 0 965.9 -- 44
2020-07-03 03:00:00 20.3 4 Noroeste 15 Oeste 0 965.9 -- 38
2020-07-03 02:00:00 -- -- -- -- -- -- -- -- --
2020-07-03 01:00:00 -- -- -- -- -- -- -- -- --
2020-07-03 00:00:00 -- -- -- -- -- -- -- -- --
2020-07-02 23:00:00 -- -- -- -- -- -- -- -- --
2020-07-02 22:00:00 -- -- -- -- -- -- -- -- --
2020-07-02 21:00:00 30.1 18 Oeste -- -- 0 963.9 -- 24
2020-07-02 20:00:00 31.6 -- -- -- -- 0 963.6 -- 24
2020-07-02 19:00:00 32.3 -- -- -- -- 0 963.7 -- 21
2020-07-02 18:00:00 32.9 16 Oeste -- -- 0 963.8 -- 17
2020-07-02 17:00:00 32.5 18 Oeste -- -- 0 964.2 -- 16
2020-07-02 16:00:00 31.9 -- -- -- -- 0 964.6 -- 19
2020-07-02 15:00:00 31 -- -- -- -- 0 965.1 -- 21
2020-07-02 14:00:00 30.7 17 Oeste 31 Oeste 0 965.4 -- 21
2020-07-02 13:00:00 29.3 13 Sudoeste 26 Oeste 0 965.3 -- 30
2020-07-02 12:00:00 27.9 12 Sudoeste 21 Sudoeste 0 965.3 -- 34
2020-07-02 11:00:00 26.4 9 Sudoeste 17 Oeste 0 965.2 -- 42
2020-07-02 10:00:00 23.8 9 Oeste 15 Sudoeste 0 965.1 -- 52
2020-07-02 09:00:00 22.5 8 Sudoeste 13 Sur 0 964.7 -- 56
2020-07-02 08:00:00 21 9 Sur 18 Sur 0 964.2 -- 61
2020-07-02 07:00:00 20.5 7 Oeste 21 Sudoeste 0 963.7 -- 57
2020-07-02 06:00:00 21.5 6 Sudeste 21 Oeste 0 963 -- 49
2020-07-02 05:00:00 23.1 13 Oeste 26 Oeste 0 962.9 -- 44
2020-07-02 04:00:00 23.8 10 Sudoeste 14 Sudoeste 0 962.9 -- 40
2020-07-02 03:00:00 24.9 6 Sudoeste 11 Sudoeste 0 962.9 -- 37
2020-07-02 02:00:00 26.2 9 Oeste 17 Oeste 0 963 -- 32
2020-07-02 01:00:00 27.1 9 Oeste 22 Oeste 0 963 -- 30
2020-07-02 00:00:00 28.5 12 Oeste 26 Oeste 0 962.5 -- 26
2020-07-01 23:00:00 28.4 7 Oeste 17 Oeste 0 962.2 -- 29
2020-07-01 22:00:00 30.3 10 Oeste 26 Oeste 0 961.8 -- 25
2020-07-01 21:00:00 33.5 12 Oeste 24 Oeste 0 961.6 -- 19
2020-07-01 20:00:00 34.5 14 Oeste 29 Sudoeste 0 961.4 -- 17
2020-07-01 19:00:00 35.1 14 Oeste 26 Oeste 0 961.4 -- 14
2020-07-01 18:00:00 34.8 14 Sudoeste 27 Oeste 0 961.8 -- 14
2020-07-01 17:00:00 34.4 12 Sudoeste 32 Oeste 0 962.1 -- 18
2020-07-01 16:00:00 33.5 16 Oeste 30 Oeste 0 962.5 -- 22
2020-07-01 15:00:00 32.9 13 Oeste 28 Oeste 0 962.8 -- 20
2020-07-01 14:00:00 31.5 15 Oeste 30 Oeste 0 963.2 -- 25
2020-07-01 13:00:00 30.6 14 Oeste 28 Oeste 0 963.2 -- 26
2020-07-01 12:00:00 29.4 10 Oeste 27 Oeste 0 963.3 -- 31
2020-07-01 11:00:00 27.3 8 Sudoeste 19 Sudoeste 0 963.2 -- 41
2020-07-01 10:00:00 26.3 10 Oeste 15 Oeste 0 963.2 -- 45
2020-07-01 09:00:00 24.6 6 Noroeste 10 Noroeste 0 962.8 -- 49
2020-07-01 08:00:00 22.9 5 Sudoeste 10 Sudoeste 0 962.3 -- 52
2020-07-01 07:00:00 20.6 3 Norte 9 Nordeste 0 961.8 -- 50
2020-07-01 06:00:00 22.1 7 Noroeste 10 Noroeste 0 961.4 -- 49
2020-07-01 05:00:00 24.2 5 Oeste 13 Oeste 0 961.3 -- 43
2020-07-01 04:00:00 25.1 9 Oeste 18 Oeste 0 961.1 -- 39
2020-07-01 03:00:00 25.8 7 Oeste 14 Oeste 0 961 -- 34
2020-07-01 02:00:00 27 6 Sudoeste 8 Sur 0 961 -- 29
2020-07-01 01:00:00 28.3 8 Oeste 14 Sudoeste 0 960.9 -- 27
2020-07-01 00:00:00 29.7 7 Sudoeste 19 Oeste 0 960.3 -- 25
2020-06-30 23:00:00 31.3 13 Sudoeste 27 Sudoeste 0 959.8 -- 21
2020-06-30 22:00:00 32.5 17 Oeste 27 Oeste 0 959.3 -- 20
2020-06-30 21:00:00 34.8 13 Oeste 30 Oeste 0 958.8 -- 18
2020-06-30 20:00:00 36.4 16 Oeste 30 Oeste 0 958.4 -- 15
2020-06-30 19:00:00 37.3 14 Noroeste -- -- 0 958.2 -- 15
2020-06-30 18:00:00 37.9 17 Noroeste -- -- 0 958.6 -- 14
2020-06-30 17:00:00 38.3 13 Oeste 31 Este 0 958.9 -- 15
2020-06-30 16:00:00 38.2 12 Sudoeste 28 Oeste 0 959.5 -- 14
2020-06-30 15:00:00 37.4 12 Sudoeste 28 Sudoeste 0 960 -- 15
2020-06-30 14:00:00 36.4 10 Sudoeste 25 Oeste 0 960.7 -- 16
2020-06-30 13:00:00 35.4 8 Sudoeste 20 Oeste 0 961 -- 19
2020-06-30 12:00:00 33.8 6 Sur 15 Sudoeste 0 961 -- 24
2020-06-30 11:00:00 31.4 4 Sudoeste 13 Sudoeste 0 961.1 -- 28
2020-06-30 10:00:00 28.9 2 Sudoeste 6 Nordeste 0 961.3 -- 31
2020-06-30 09:00:00 25.9 3 Nordeste 5 Nordeste 0 961.4 -- 36
2020-06-30 08:00:00 22.7 2 Sudeste 11 Oeste 0 961.3 -- 46
2020-06-30 07:00:00 21.1 3 Oeste 15 Sur 0 961 -- 47
2020-06-30 06:00:00 21.2 4 Sur 12 Sur 0 960.5 -- 48
2020-06-30 05:00:00 21.6 3 Sudeste 8 Sur 0 960.4 -- 46
2020-06-30 04:00:00 23 5 Sudoeste 8 Oeste 0 960.2 -- 41
2020-06-30 03:00:00 24 6 Oeste 8 Oeste 0 960.5 -- 38
2020-06-30 02:00:00 25.4 3 Sudeste 7 Sudeste 0 961 -- 33
2020-06-30 01:00:00 27.1 8 Sudoeste 18 Nordeste 0 961.4 -- 28
2020-06-30 00:00:00 28 4 Sur 7 Sur 0 961.1 -- 26
2020-06-29 23:00:00 29.9 6 Sudoeste 7 Sudoeste 0 960.9 -- 23
2020-06-29 22:00:00 32.8 4 Oeste 16 Noroeste 0 960.5 -- 18
2020-06-29 21:00:00 35.7 12 Noroeste 20 Noroeste 0 960.5 -- 14
2020-06-29 20:00:00 37.2 11 Noroeste 23 Noroeste 0 960.7 -- 12
2020-06-29 19:00:00 37.5 10 Oeste 27 Oeste 0 961 -- 12
2020-06-29 18:00:00 38 13 Noroeste 25 Oeste 0 961.5 -- 13
2020-06-29 17:00:00 37.5 10 Sudoeste 26 Noroeste 0 962.2 -- 14
2020-06-29 16:00:00 37.5 16 Noroeste 31 Noroeste 0 962.5 -- 14
2020-06-29 15:00:00 36.4 6 Nordeste 27 Sudoeste 0 963.3 -- 17
2020-06-29 14:00:00 35.8 8 Noroeste 20 Oeste 0 963.8 -- 18
2020-06-29 13:00:00 34.8 7 Norte 17 Noroeste 0 964.6 -- 19
2020-06-29 12:00:00 33.1 5 Noroeste 12 Oeste 0 965 -- 23
2020-06-29 11:00:00 30.6 4 Oeste 7 Sudoeste 0 965.1 -- 29
2020-06-29 10:00:00 27.4 3 Este 8 Norte 0 965.4 -- 35
2020-06-29 09:00:00 23.9 4 Noroeste 7 Noroeste 0 965.2 0.9 48
2020-06-29 08:00:00 20.7 3 Norte 4 Norte 0 964.9 -- 54
2020-06-29 07:00:00 20.2 2 Sudoeste 6 Sudoeste 0 964.6 -- 60
2020-06-29 06:00:00 19.7 0 Calma 9 Sudoeste 0 964.3 -- 56
2020-06-29 05:00:00 20.1 2 Oeste 6 Noroeste 0 964.1 -- 54
2020-06-29 04:00:00 21.4 3 Sur 5 Sur 0 964 -- 50
2020-06-29 03:00:00 21.6 0 Calma 5 Sudeste 0 964.4 -- 50
2020-06-29 02:00:00 23.5 0 Calma 9 Sudoeste 0 964.5 -- 46
2020-06-29 01:00:00 24.9 5 Sudoeste 8 Sudoeste 0 964.6 -- 39
2020-06-29 00:00:00 26.2 3 Sur 7 Sur 0 964.5 -- 46
2020-06-28 23:00:00 27.8 2 Este 8 Sudoeste 0 964.2 -- 32
2020-06-28 22:00:00 30.6 7 Oeste 17 Sudoeste 0 964 -- 27
2020-06-28 21:00:00 33.9 10 Oeste 18 Sudoeste 0 963.8 -- 19
2020-06-28 20:00:00 35 8 Oeste 23 Oeste 0 963.9 -- 14
2020-06-28 19:00:00 35.5 9 Oeste 26 Oeste 0 964 -- 13
2020-06-28 18:00:00 34.9 11 Oeste 26 Oeste 0 964.5 -- 14
2020-06-28 17:00:00 34.7 17 Oeste 33 Oeste 0 964.7 -- 18
2020-06-28 16:00:00 34.8 9 Oeste 23 Noroeste 0 964.9 -1.4 18
2020-06-28 15:00:00 33.6 12 Oeste 27 Oeste 0 965.4 -- 21
2020-06-28 14:00:00 32.9 12 Noroeste 26 Oeste 0 965.8 -- 24
2020-06-28 13:00:00 32.3 5 Oeste 19 Oeste 0 966.3 -- 26
2020-06-28 12:00:00 30 6 Sudoeste 14 Noroeste 0 966.6 -- 29
2020-06-28 11:00:00 28.4 6 Noroeste 13 Noroeste 0 966.8 -- 36
2020-06-28 10:00:00 26 3 Sudoeste 7 Nordeste 0 966.7 -- 44
2020-06-28 09:00:00 23.2 3 Nordeste 6 Nordeste 0 966.4 -- 52
2020-06-28 08:00:00 19.7 0 Calma 4 Noroeste 0 966.1 -- 63
2020-06-28 07:00:00 17.4 3 Norte 3 Sudoeste 0 965.8 -- 69
2020-06-28 06:00:00 18.4 3 Sudoeste 4 Sur 0 965.6 -- 67
2020-06-28 05:00:00 19.5 2 Este 5 Sudoeste 0 965.5 -- 60
2020-06-28 04:00:00 21.9 4 Sudoeste 7 Sudoeste 0 965.3 -- 55
2020-06-28 03:00:00 22.5 2 Sudoeste 8 Oeste 0 965.2 -- 53
2020-06-28 02:00:00 24.1 4 Oeste 19 Sudoeste 0 965.2 -- 47
2020-06-28 01:00:00 25.3 9 Oeste 23 Oeste 0 965.2 -- 43
2020-06-28 00:00:00 26.4 10 Oeste 23 Oeste 0 965.1 -- 39
2020-06-27 23:00:00 26.8 8 Oeste 14 Oeste 0 964.8 -- 36
2020-06-27 22:00:00 28.1 7 Oeste 19 Oeste 0 964.3 -- 31
2020-06-27 21:00:00 30.9 11 Oeste 21 Oeste 0 964.3 -- 27
2020-06-27 20:00:00 32 12 Oeste 24 Oeste 0 964 -- 24
2020-06-27 19:00:00 32.5 10 Sudoeste 32 Noroeste 0 964 -- 23
2020-06-27 18:00:00 32 13 Oeste 27 Oeste 0 964.4 -- 21
2020-06-27 17:00:00 31.8 12 Oeste 25 Sudoeste 0 964.8 -- 20
2020-06-27 16:00:00 31.1 13 Oeste 26 Oeste 0 965 -- 22
2020-06-27 15:00:00 29.6 9 Oeste 23 Oeste 0 965.4 -- 27
2020-06-27 14:00:00 28.7 9 Oeste 23 Oeste 0 965.9 -- 32
2020-06-27 13:00:00 27 12 Oeste 21 Oeste 0 966.3 -- 35
2020-06-27 12:00:00 25.6 10 Oeste 20 Sudoeste 0 966.5 -- 40
2020-06-27 11:00:00 24 7 Oeste 14 Oeste 0 966.5 -- 45
2020-06-27 10:00:00 21.5 5 Sur 12 Oeste 0 966.5 -- 52
2020-06-27 09:00:00 20.2 6 Sur 14 Sudoeste 0 966.2 -- 56
2020-06-27 08:00:00 18.5 8 Sudoeste 14 Sudoeste 0 965.8 -- 59
2020-06-27 07:00:00 17.8 3 Sudeste 16 Sur 0 965.3 -- 59
2020-06-27 06:00:00 18.3 5 Sudeste 16 Sur 0 964.9 -- 59
2020-06-27 05:00:00 19.4 6 Oeste 13 Oeste 0 964.7 -- 55
2020-06-27 04:00:00 19.8 3 Sudeste 14 Sudoeste 0 964.5 -- 52
2020-06-27 03:00:00 20.9 7 Sudoeste 17 Sudoeste 0 964.3 -- 47
2020-06-27 02:00:00 21.8 7 Sudoeste 17 Oeste 0 964.5 -- 39
2020-06-27 01:00:00 23.1 10 Oeste 27 Oeste 0 964.4 -- 34
2020-06-27 00:00:00 23.6 13 Oeste 23 Sudoeste 0 964.2 -- 32
2020-06-26 23:00:00 23.8 11 Oeste 20 Oeste 0 963.8 -- 31
2020-06-26 22:00:00 24.7 8 Oeste 23 Oeste 0 963.3 -- 29
2020-06-26 21:00:00 27.7 13 Oeste 22 Oeste 0 962.9 -- 23
2020-06-26 20:00:00 27.4 14 Oeste 33 Oeste 0 962.9 -- 20
2020-06-26 19:00:00 29.6 16 Oeste 35 Oeste 0 962.7 -- 14
2020-06-26 18:00:00 29.5 15 Oeste 33 Noroeste 0 963.2 -- 19
2020-06-26 17:00:00 29.4 19 Oeste 37 Noroeste 0 963.5 -- 14
2020-06-26 16:00:00 29.3 17 Oeste 33 Oeste 0 963.8 -- 17
2020-06-26 15:00:00 28.5 15 Oeste 28 Oeste 0 964 -- 22
2020-06-26 14:00:00 28.5 15 Sudoeste 29 Oeste 0 964 -- 22
2020-06-26 13:00:00 27.2 12 Oeste 23 Sudoeste 0 964.1 -- 29
2020-06-26 12:00:00 25.9 13 Oeste 22 Sudoeste 0 964.2 -- 30
2020-06-26 11:00:00 24 4 Oeste 15 Noroeste 0 964.4 -- 44
2020-06-26 10:00:00 21.8 8 Noroeste 15 Noroeste 0 964.5 -- 52
2020-06-26 09:00:00 21 6 Norte 10 Norte 0 963.9 -- 54
2020-06-26 08:00:00 19.1 0 Calma 7 Norte 0 964 -- 59
2020-06-26 07:00:00 18.7 4 Oeste 23 Sudoeste 0 963.7 -- 57
2020-06-26 06:00:00 19.8 4 Norte 17 Oeste 0 963.4 -- 49
2020-06-26 05:00:00 21.2 10 Sudoeste 25 Sudoeste 0 963.1 -- 40
2020-06-26 04:00:00 22.7 19 Sudoeste 31 Sudoeste 0 962.9 -- 34
2020-06-26 03:00:00 23.6 13 Sudoeste 18 Sur 0 963 -- 36
2020-06-26 02:00:00 24.1 5 Oeste 24 Sudoeste 0 962.9 -- 35
2020-06-26 01:00:00 25.6 13 Sudoeste 24 Oeste 0 962.5 -- 34
2020-06-26 00:00:00 27 14 Oeste 27 Sudoeste 0 962.2 -- 34
2020-06-25 23:00:00 28.2 14 Oeste 30 Oeste 0 961.9 -- 33
2020-06-25 22:00:00 29.8 17 Oeste 29 Sudoeste 0 961.1 -- 28
2020-06-25 21:00:00 32.2 18 Oeste 29 Oeste 0 960.6 -- 22
2020-06-25 20:00:00 34.5 12 Oeste 30 Noroeste 0 960.2 -- 18
2020-06-25 19:00:00 35.4 9 Oeste 29 Oeste 0 960.2 -- 16
2020-06-25 18:00:00 35.5 10 Sudoeste 24 Sudoeste 0 960.8 -- 16
2020-06-25 17:00:00 34.9 15 Sudoeste 36 Sudoeste 0 961.5 -- 17
2020-06-25 16:00:00 34.4 12 Sudoeste 29 Oeste 0 962 -- 18
2020-06-25 15:00:00 33.6 10 Noroeste 27 Oeste 0 962.6 -- 18
2020-06-25 14:00:00 33.4 8 Noroeste 21 Oeste 0 962.9 -- 21
2020-06-25 13:00:00 32.5 8 Noroeste 17 Norte 0 963.3 -- 21
2020-06-25 12:00:00 30.1 6 Oeste -- -- 0 963.7 -- 25
2020-06-25 11:00:00 29 9 Noroeste 18 Noroeste 0 963.6 -- 27
2020-06-25 10:00:00 26.5 11 Oeste 20 Oeste 0 963.7 -- 34
2020-06-25 09:00:00 24.8 10 Oeste 19 Oeste 0 963.7 -- 40
2020-06-25 08:00:00 23.7 9 Oeste 29 Oeste 0 963.1 -- 43
2020-06-25 07:00:00 23.7 19 Oeste 31 Oeste 0 962.9 -- 42
2020-06-25 06:00:00 23.8 9 Oeste 12 Noroeste 0 962.5 -- 39
2020-06-25 05:00:00 22 0 Calma 7 Sur 0 962.1 -- 46
2020-06-25 04:00:00 24.6 5 Sur -- -- 0 961.9 -- 38
2020-06-25 03:00:00 25.4 5 Sudoeste 8 Sudoeste 0 962.1 -- 38
2020-06-25 02:00:00 26.3 6 Sudoeste 10 Oeste 0 962 -- 36
2020-06-25 01:00:00 26.8 3 Este 9 Sudoeste 0 962.2 -- 34
2020-06-25 00:00:00 28.2 5 Sudoeste 13 Noroeste 0 962.1 -- 31
2020-06-24 23:00:00 30.7 9 Noroeste 16 Oeste 0 961.9 -- 25
2020-06-24 22:00:00 32.5 7 Oeste -- -- 0 961.3 -- 20
2020-06-24 21:00:00 34.6 12 Este 27 Sudeste 0 961 -- 16
2020-06-24 20:00:00 36.4 -- -- -- -- 0 960.4 -- 14
2020-06-24 19:00:00 37.5 -- -- -- -- 0 960.6 -- 14
2020-06-24 18:00:00 37.5 -- -- -- -- 0 961.2 -- 14
2020-06-24 17:00:00 37.1 11 Norte 22 Noroeste 0 962 -- 14
2020-06-24 16:00:00 36.6 9 Noroeste 24 Noroeste 0 962.5 -- 14
2020-06-24 15:00:00 35.4 8 Oeste 19 Sudoeste 0 963.1 -- 15
2020-06-24 14:00:00 34.2 7 Norte 19 Norte 0 963.4 -- 20
2020-06-24 13:00:00 32 4 Este 15 Oeste 0 963.7 -- 25
2020-06-24 12:00:00 30.3 6 Oeste 20 Sudoeste 0 963.9 -- 27
2020-06-24 11:00:00 28.9 10 Sudoeste 22 Sudoeste 0 964 -- 30
2020-06-24 10:00:00 27.3 12 Sudoeste 23 Sudoeste 0 964.1 -- 33
2020-06-24 09:00:00 26.3 4 Sudoeste 12 Sudoeste 0 964.1 -- 39
2020-06-24 08:00:00 23.3 3 Sudoeste 6 Este 0 963.6 -- 45
2020-06-24 07:00:00 23.3 3 Este 12 Oeste 0 963.4 -- 44
2020-06-24 06:00:00 25 6 Noroeste 14 Noroeste 0 962.8 -- 39
2020-06-24 05:00:00 26.8 5 Noroeste 22 Oeste 0 962.6 -- 31
2020-06-24 04:00:00 28.2 14 Sudoeste 28 Sudoeste 0 962.2 -- 29
2020-06-24 03:00:00 28.8 9 Sudoeste 27 Sudoeste 0 961.9 -- 29
2020-06-24 02:00:00 30.7 6 Sudoeste 18 Sudoeste 0 961.8 -- 19
2020-06-24 01:00:00 30.6 3 Sur 18 Oeste 0 961.5 -- 18
2020-06-24 00:00:00 33.3 8 Norte 29 Sudoeste 0 960.6 -- 14
2020-06-23 23:00:00 33.8 17 Sudoeste 36 Sudoeste 0 961.7 -- 14
2020-06-23 22:00:00 32.5 3 Sur 8 Sur 0 960.3 -- 19
2020-06-23 21:00:00 36.1 5 Noroeste 15 Oeste 0 960.1 -- 13
2020-06-23 20:00:00 38.9 7 Noroeste 15 Oeste 0 960 -- 11
2020-06-23 19:00:00 39.2 9 Noroeste 18 Sudeste 0 960.1 -- 11
2020-06-23 18:00:00 39.4 5 Oeste 17 Sudoeste 0 960.7 -- 10
2020-06-23 17:00:00 39 6 Nordeste 24 Sudoeste 0 961.3 -- 10
2020-06-23 16:00:00 38.6 6 Sur 24 Este 0 961.9 -- 11
2020-06-23 15:00:00 38.1 8 Nordeste 25 Sudeste 0 962.5 -- 11
2020-06-23 14:00:00 37.5 7 Nordeste 24 Este 0 963.1 -- 11
2020-06-23 13:00:00 35.8 6 Este -- -- -- 963.8 -- 12
2020-06-23 12:00:00 -- -- -- -- -- -- -- -- --
2020-06-23 11:00:00 -- -- -- -- -- -- -- -- --
2020-06-23 10:00:00 -- -- -- -- -- -- -- -- --
2020-06-23 09:00:00 -- -- -- -- -- -- -- -- --
2020-06-23 08:00:00 -- -- -- -- -- -- -- -- --
2020-06-23 07:00:00 -- -- -- -- -- -- -- -- --
2020-06-23 06:00:00 -- -- -- -- -- -- -- -- --
2020-06-23 05:00:00 -- -- -- -- -- -- -- -- --
2020-06-23 04:00:00 -- -- -- -- -- -- -- -- --
2020-06-23 03:00:00 -- -- -- -- -- -- -- -- --
2020-06-23 02:00:00 -- -- -- -- -- -- -- -- --
2020-06-23 01:00:00 26.1 3 Sur 9 Oeste 0 964 -- 26
2020-06-23 00:00:00 26.8 5 Sudoeste 10 Oeste 0 964.1 -- 25
2020-06-22 23:00:00 28.9 3 Sur 10 Sudoeste 0 963.7 -- 21
2020-06-22 22:00:00 32.8 6 Sudoeste 11 Norte 0 963.1 -- 14
2020-06-22 21:00:00 37.3 6 Norte 12 Norte 0 962.8 -- 10
2020-06-22 20:00:00 38.2 8 Oeste 24 Noroeste 0 962.8 -- 10
2020-06-22 19:00:00 38.4 6 Este 16 Este 0 963.2 -- 9
2020-06-22 18:00:00 38.6 5 Sudeste 20 Oeste 0 963.8 -- 10
2020-06-22 17:00:00 37.9 13 Sudoeste 39 Oeste 0 964.6 -- 10
2020-06-22 16:00:00 38.2 5 Sudeste 32 Sur 0 965.4 -- 10
2020-06-22 15:00:00 37.1 9 Sur 21 Sudoeste 0 966.3 -- 11
2020-06-22 14:00:00 36.6 8 Sur 20 Sudeste 0 967 -- 11
2020-06-22 13:00:00 35.3 9 Este 17 Sudeste 0 967.6 -- 13
2020-06-22 12:00:00 33.5 9 Este 20 Este 0 968 -- 15
2020-06-22 11:00:00 30.9 3 Este 12 Norte 0 968.3 -- 20
2020-06-22 10:00:00 27 2 Norte 6 Noroeste 0 968.5 -- 27
2020-06-22 09:00:00 23.6 2 Nordeste 4 Norte 0 968.6 -- 35
2020-06-22 08:00:00 17.7 2 Sudeste 4 Sudeste 0 968.5 -- 52
2020-06-22 07:00:00 16 0 Calma 4 Sur 0 968.3 -- 60
2020-06-22 06:00:00 17 2 Nordeste 8 Sudoeste 0 968.1 -- 53
2020-06-22 05:00:00 17.9 4 Sudoeste 6 Sudoeste 0 968.4 -- 46
2020-06-22 04:00:00 18.3 0 Calma 4 Sur 0 968.6 -- 49
2020-06-22 03:00:00 19.8 2 Sur 8 Sur 0 968.9 -- 43
2020-06-22 02:00:00 20.1 2 Este 7 Sudoeste 0 969 -- 43
2020-06-22 01:00:00 22.6 5 Sudoeste 6 Sudoeste 0 969.2 -- 33
2020-06-22 00:00:00 24.9 4 Sudeste 6 Sudeste 0 969.1 -- 30
2020-06-21 23:00:00 26.4 4 Sudeste 6 Sudeste 0 968.9 -- 28
2020-06-21 22:00:00 29.8 5 Sudoeste 15 Oeste 0 968.5 -- 23
2020-06-21 21:00:00 33.2 10 Oeste 17 Oeste 0 968.3 -- 17
2020-06-21 20:00:00 34.3 10 Sudoeste 19 Oeste 0 968.2 -- 14
2020-06-21 19:00:00 34.9 6 Oeste 19 Oeste 0 968.3 -- 12
2020-06-21 18:00:00 34.9 10 Noroeste 22 Noroeste 0 968.9 -- 11
2020-06-21 17:00:00 34.4 9 Noroeste 24 Oeste 0 969.4 -- 10
2020-06-21 16:00:00 33.6 9 Oeste 26 Oeste 0 969.9 -- 12
2020-06-21 15:00:00 33 6 Sudoeste 22 Noroeste 0 970.4 -- 11
2020-06-21 14:00:00 31.7 10 Oeste 22 Oeste 0 971 -- 18
2020-06-21 13:00:00 30.5 8 Oeste 17 Noroeste 0 971.2 -- 23
2020-06-21 12:00:00 27.8 7 Oeste 18 Noroeste 0 971.4 -- 33
2020-06-21 11:00:00 26.2 7 Oeste 14 Oeste 0 971.5 -- 36
2020-06-21 10:00:00 24.3 5 Sudoeste 9 Oeste 0 971.4 -- 40
2020-06-21 09:00:00 21.4 3 Norte 6 Nordeste 0 971.5 -- 47
2020-06-21 08:00:00 18.7 2 Sudoeste 6 Norte 0 971.1 -- 58
2020-06-21 07:00:00 16.8 0 Calma 8 Sur 0 970.5 -- 61
2020-06-21 06:00:00 18.9 5 Sur 8 Sur 0 970.1 -- 55
2020-06-21 05:00:00 17.7 4 Norte 7 Sudoeste 0 970.1 -- 53
2020-06-21 04:00:00 21.4 5 Sur 14 Sudoeste 0 969.9 -- 44
2020-06-21 03:00:00 21.7 7 Sur 10 Sur 0 970 -- 35
2020-06-21 02:00:00 22.1 5 Sudoeste 6 Sudoeste 0 970 -- 34
2020-06-21 01:00:00 21.8 4 Sudoeste 7 Sudeste 0 969.8 -- 33
2020-06-21 00:00:00 24.8 3 Sudoeste 7 Oeste 0 969.5 -- 30
2020-06-20 23:00:00 25.9 3 Noroeste 13 Oeste 0 969.2 -- 24
2020-06-20 22:00:00 27.8 8 Oeste 14 Oeste 0 968.6 -- 22
2020-06-20 21:00:00 31.5 10 Noroeste 18 Oeste 0 968.4 -- 14
2020-06-20 20:00:00 32.8 11 Oeste 31 Sudoeste 0 968.3 -- 10
2020-06-20 19:00:00 33.1 12 Oeste 25 Oeste 0 968.1 -- 12
2020-06-20 18:00:00 32.6 14 Oeste 28 Oeste 0 968.4 -- 13
2020-06-20 17:00:00 32.7 11 Noroeste 32 Oeste 0 969 -- 10
2020-06-20 16:00:00 32.2 12 Oeste 31 Sudoeste 0 969.2 -- 15
2020-06-20 15:00:00 31.6 12 Oeste 30 Oeste 0 969.6 -- 13
2020-06-20 14:00:00 30.7 11 Oeste 27 Oeste 0 969.8 -- 15
2020-06-20 13:00:00 29.5 10 Oeste 24 Oeste 0 970.1 -- 18
2020-06-20 12:00:00 28.2 5 Noroeste 12 Noroeste 0 970 -- 24
2020-06-20 11:00:00 25.8 5 Noroeste 11 Oeste 0 970 -- 28
2020-06-20 10:00:00 22.7 3 Este 7 Nordeste 0 969.9 -- 31
2020-06-20 09:00:00 19.3 4 Nordeste 7 Norte 0 969.8 -- 42
2020-06-20 08:00:00 15.8 4 Sudeste 6 Norte 0 969.3 -- 44
2020-06-20 07:00:00 13.5 0 Calma 4 Este 0 968.7 -- 66
2020-06-20 06:00:00 14.1 3 Sudoeste 7 Norte 0 968.5 -- 49
2020-06-20 05:00:00 15.2 3 Norte 6 Sudeste 0 968.2 -- 44
2020-06-20 04:00:00 17.1 0 Calma 7 Sur 0 968.1 -- 47
2020-06-20 03:00:00 20.2 4 Sur 8 Sudoeste 0 968.2 -- 31
2020-06-20 02:00:00 18.3 3 Sudeste 14 Sudoeste 0 968.4 -- 38
2020-06-20 01:00:00 18.3 2 Este 7 Sudeste 0 968.4 -- 32
2020-06-20 00:00:00 22.4 5 Sur 9 Sur 0 968.1 -- 20
2020-06-19 23:00:00 23.7 4 Norte 16 Oeste 0 967.4 -- 18
2020-06-19 22:00:00 25.4 3 Oeste 18 Oeste 0 966.8 -- 20
2020-06-19 21:00:00 29.1 12 Oeste 22 Noroeste 0 966.3 -- 13
2020-06-19 20:00:00 30 12 Oeste 24 Oeste 0 966 -- 13
2020-06-19 19:00:00 30 17 Oeste 28 Oeste 0 965.9 -- 12
2020-06-19 18:00:00 30.4 13 Oeste 28 Oeste 0 966.1 -- 13
2020-06-19 17:00:00 30.2 12 Oeste 28 Oeste 0 966.1 -- 15
2020-06-19 16:00:00 29.5 13 Sudoeste 32 Oeste 0 966.3 -- 17
2020-06-19 15:00:00 28.7 15 Sudoeste 32 Oeste 0 966.4 -- 19
2020-06-19 14:00:00 27.8 14 Sudoeste 33 Sudoeste 0 966.8 -- 23
2020-06-19 13:00:00 26.5 9 Sudoeste 23 Sudoeste 0 966.9 -- 30
2020-06-19 12:00:00 24.5 10 Oeste 18 Oeste 0 966.7 -- 35
2020-06-19 11:00:00 22.9 4 Sudeste 13 Sudoeste 0 966.5 -- 39
2020-06-19 10:00:00 20.3 6 Sur 13 Sur 0 966.4 -- 47
2020-06-19 09:00:00 17.8 8 Sudoeste 12 Sur 0 966.1 -- 53
2020-06-19 08:00:00 16.5 5 Sudoeste 14 Sudoeste 0 965.6 -- 57
2020-06-19 07:00:00 15.7 9 Sudoeste 16 Sudoeste 0 965.2 -- 58
2020-06-19 06:00:00 16.4 8 Sudoeste 14 Oeste 0 964.5 -- 57
2020-06-19 05:00:00 17.4 5 Oeste 14 Oeste 0 964 -- 57
2020-06-19 04:00:00 19.1 8 Sudoeste 17 Sudoeste 0 963.7 -- 50
2020-06-19 03:00:00 20 8 Sudoeste 18 Sudoeste 0 963.4 -- 46
2020-06-19 02:00:00 20.4 9 Sur 13 Sur 0 963 -- 43
2020-06-19 01:00:00 19.8 4 Sudoeste 7 Sudoeste 0 963 -- 43
2020-06-19 00:00:00 21.1 4 Sur 7 Sudeste 0 962.9 -- 34
2020-06-18 23:00:00 22.6 4 Oeste 8 Oeste 0 962.5 -- 29
2020-06-18 22:00:00 25.2 3 Sudoeste 13 Oeste 0 961.9 -- 18
2020-06-18 21:00:00 28.2 9 Oeste 22 Oeste 0 961.6 -- 14
2020-06-18 20:00:00 29.1 11 Oeste 25 Oeste 0 961.2 -- 15
2020-06-18 19:00:00 29.5 12 Oeste 24 Oeste 0 961 -- 16
2020-06-18 18:00:00 29.3 15 Oeste 29 Oeste 0 961.2 -- 17
2020-06-18 17:00:00 29.1 12 Oeste 26 Oeste 0 961.4 -- 20
2020-06-18 16:00:00 28.5 12 Oeste 27 Oeste 0 961.6 -- 20
2020-06-18 15:00:00 27.6 14 Oeste 26 Oeste 0 962 -- 21
2020-06-18 14:00:00 26.6 17 Oeste 28 Oeste 0 962.3 -- 24
2020-06-18 13:00:00 25.7 10 Sudoeste 20 Sudoeste 0 962.7 -- 27
2020-06-18 12:00:00 24.2 5 Sudoeste 14 Noroeste 0 962.5 -- 34
2020-06-18 11:00:00 22.2 8 Noroeste 15 Noroeste 0 962.5 -- 40
2020-06-18 10:00:00 20.2 5 Sudoeste 15 Oeste 0 962.8 -- 46
2020-06-18 09:00:00 18.4 5 Sur 14 Sur 0 962.6 -- 53
2020-06-18 08:00:00 16.3 4 Sudoeste 9 Sudoeste 0 962 -- 61
2020-06-18 07:00:00 14.9 4 Sudoeste 7 Sur 0 961.9 -- 63
2020-06-18 06:00:00 14.4 3 Sudeste 5 Sur 0 961.5 -- 63
2020-06-18 05:00:00 14.6 3 Norte 8 Sur 0 961.6 -- 60
2020-06-18 04:00:00 17.3 7 Sur 10 Sur 0 961.8 -- 52
2020-06-18 03:00:00 17.9 7 Sur 12 Sur 0 962 -- 50
2020-06-18 02:00:00 18.9 7 Oeste 15 Oeste 0 962.5 -- 46
2020-06-18 01:00:00 19.6 6 Oeste 19 Oeste 0 962.8 -- 43
2020-06-18 00:00:00 20.9 9 Oeste 21 Oeste 0 963 -- 37
2020-06-17 23:00:00 21.9 9 Sudoeste 20 Oeste 0 962.6 -- 30
2020-06-17 22:00:00 22.8 8 Oeste 18 Oeste 0 962.1 -- 27
2020-06-17 21:00:00 25.3 12 Oeste 23 Oeste 0 962 -- 25
2020-06-17 20:00:00 26.2 13 Sudoeste 24 Sudoeste 0 962.1 -- 21
2020-06-17 19:00:00 26.9 9 Oeste 24 Oeste 0 962.1 -- 19
2020-06-17 18:00:00 26.4 9 Noroeste 27 Oeste 0 962.9 -- 15
2020-06-17 17:00:00 25.9 11 Oeste 31 Oeste 0 963.5 -- 19
2020-06-17 16:00:00 25.5 12 Sudoeste 28 Sudoeste 0 964 -- 22
2020-06-17 15:00:00 24.6 13 Oeste 29 Oeste 0 964.5 -- 26
2020-06-17 14:00:00 23.2 14 Oeste 25 Oeste 0 965 -- 31
2020-06-17 13:00:00 22.8 9 Oeste 25 Oeste 0 965.3 -- 34
2020-06-17 12:00:00 21.2 13 Oeste 21 Oeste 0 965.6 -- 39
2020-06-17 11:00:00 19.5 12 Oeste 20 Oeste 0 965.8 -- 45
2020-06-17 10:00:00 18.3 5 Sudoeste 18 Oeste 0 965.9 -- 49
2020-06-17 09:00:00 16.1 11 Sudoeste 19 Oeste 0 965.9 -- 56
2020-06-17 08:00:00 14.7 15 Sudoeste 26 Sudoeste 0 965.4 -- 61
2020-06-17 07:00:00 13.4 6 Oeste 22 Sudoeste 0 965.4 -- 66
2020-06-17 06:00:00 14.3 10 Oeste 21 Sudoeste 0 965.3 -- 63
2020-06-17 05:00:00 15 3 Sudeste 10 Sudeste 0 965.3 -- 63
2020-06-17 04:00:00 16.2 3 Sudeste 15 Sur 0 965.7 -- 61
2020-06-17 03:00:00 16.4 5 Sur 12 Oeste 0 966.2 -- 60
2020-06-17 02:00:00 17.8 3 Sudoeste 14 Oeste 0 966.7 -- 54
2020-06-17 01:00:00 19 7 Oeste 20 Noroeste 0 967.1 -- 51
2020-06-17 00:00:00 20.6 11 Noroeste 31 Oeste 0 967.2 -- 46
2020-06-16 23:00:00 22.1 16 Oeste 26 Oeste 0 966.6 -- 41
2020-06-16 22:00:00 22.5 11 Oeste 37 Oeste 0 966.2 -- 41
2020-06-16 21:00:00 24.3 19 Oeste 38 Oeste 0 966 -- 32
2020-06-16 20:00:00 25.5 18 Oeste 32 Oeste 0 965.8 -- 31
2020-06-16 19:00:00 25.8 19 Oeste 40 Oeste 0 965.8 -- 30
2020-06-16 18:00:00 27 19 Oeste 38 Oeste 0 965.9 -- 27
2020-06-16 17:00:00 27.5 19 Oeste 39 Oeste 0 966.1 -- 25
2020-06-16 16:00:00 26.4 21 Oeste 37 Oeste 0 966.7 -- 28
2020-06-16 15:00:00 26.5 21 Oeste 38 Oeste 0 967.2 -- 29
2020-06-16 14:00:00 26.4 16 Noroeste 36 Noroeste 0 967.6 -- 29
2020-06-16 13:00:00 24.7 19 Oeste 35 Oeste 0 968.1 -- 31
2020-06-16 12:00:00 23.1 16 Oeste 30 Oeste 0 968.4 -- 37
2020-06-16 11:00:00 21.7 14 Oeste 26 Sudoeste 0 968.5 -- 39
2020-06-16 10:00:00 20.2 8 Sudoeste 18 Sudoeste 0 968.5 -- 48
2020-06-16 09:00:00 18.9 8 Oeste 19 Oeste 0 968.3 -- 50
2020-06-16 08:00:00 16.9 8 Noroeste 19 Oeste 0 968.5 -- 59
2020-06-16 07:00:00 14.6 4 Noroeste 12 Sudoeste 0 968 -- 65
2020-06-16 06:00:00 16.5 8 Sudoeste 13 Sudoeste 0 967.6 -- 58
2020-06-16 05:00:00 17 9 Sudoeste 19 Oeste 0 967.6 -- 56
2020-06-16 04:00:00 18.2 8 Oeste 17 Sudoeste 0 968.1 -- 52
2020-06-16 03:00:00 19.3 9 Oeste 21 Oeste 0 967.7 -- 49
2020-06-16 02:00:00 20.1 14 Oeste 28 Oeste 0 967.9 -- 46
2020-06-16 01:00:00 20.9 11 Oeste 30 Oeste 0 968.1 -- 43
2020-06-16 00:00:00 21.7 15 Oeste 36 Oeste 0 968.3 -- 37
2020-06-15 23:00:00 22.5 14 Sudoeste 27 Sudoeste 0 968.4 -- 33
2020-06-15 22:00:00 23.4 13 Sudoeste 23 Sudoeste 0 968.2 -- 30
2020-06-15 21:00:00 24.5 11 Sudoeste 24 Sudoeste 0 968.4 -- 28
2020-06-15 20:00:00 26.4 13 Oeste 26 Oeste 0 967.9 -- 25
2020-06-15 19:00:00 26.7 14 Sudoeste 28 Oeste 0 968.4 -- 22
2020-06-15 18:00:00 26.9 14 Sudoeste 31 Oeste 0 968.6 -- 17
2020-06-15 17:00:00 26.4 17 Sudoeste 35 Oeste 0 969 -- 19
2020-06-15 16:00:00 26.5 16 Oeste 38 Oeste 0 969.3 -- 24
2020-06-15 15:00:00 25.7 12 Oeste 32 Oeste 0 969.8 -- 25
2020-06-15 14:00:00 24.6 16 Oeste 30 Oeste 0 970.2 -- 28
2020-06-15 13:00:00 23.6 14 Oeste 27 Oeste 0 970.5 -- 32
2020-06-15 12:00:00 22.1 13 Sudoeste 23 Sudoeste 0 970.6 -- 33
2020-06-15 11:00:00 21.4 10 Oeste 21 Oeste 0 970.4 -- 33
2020-06-15 10:00:00 19.4 8 Sudoeste 18 Sur 0 970.6 -- 48
2020-06-15 09:00:00 18 5 Sudoeste 12 Sudoeste 0 970.5 -- 55
2020-06-15 08:00:00 13.8 2 Norte 6 Norte 0 970.3 -- 68
2020-06-15 07:00:00 13 5 Norte 16 Sudoeste 0 970 -- 70
2020-06-15 06:00:00 15.2 10 Sudoeste 18 Oeste 0 969.8 -- 64
2020-06-15 05:00:00 15.1 3 Sur 10 Oeste 0 969.5 -- 63
2020-06-15 04:00:00 16.5 6 Sur 12 Sur 0 969.5 -- 57
2020-06-15 03:00:00 17 5 Sur 11 Sudoeste 0 969.3 -- 53
2020-06-15 02:00:00 17.9 2 Norte 18 Oeste 0 969.4 -- 49
2020-06-15 01:00:00 19.8 12 Oeste 25 Oeste 0 969.2 -- 39
2020-06-15 00:00:00 20.7 14 Oeste 29 Sudoeste 0 968.9 -- 34
2020-06-14 23:00:00 21.4 14 Oeste 26 Oeste 0 968.5 -- 32
2020-06-14 22:00:00 22.2 9 Oeste 18 Oeste 0 968 -- 28
2020-06-14 21:00:00 24.9 13 Oeste 23 Oeste 0 967.8 -- 23
2020-06-14 20:00:00 25.8 13 Oeste 38 Oeste 0 967.6 -- 18
2020-06-14 19:00:00 26.5 12 Oeste 32 Sudoeste 0 967.5 -- 17
2020-06-14 18:00:00 25.8 20 Oeste 35 Oeste 0 967.7 -- 18
2020-06-14 17:00:00 25.4 19 Oeste 36 Noroeste 0 967.9 -- 22
2020-06-14 16:00:00 25.7 15 Oeste 34 Oeste 0 968.2 -- 22
2020-06-14 15:00:00 25.1 15 Sudoeste 34 Oeste 0 968.4 -- 25
2020-06-14 14:00:00 24.3 15 Oeste 35 Oeste 0 968.8 -- 26
2020-06-14 13:00:00 23.6 18 Sudoeste 30 Sudoeste 0 969.1 -- 27
2020-06-14 12:00:00 22.8 8 Sudoeste 21 Sudoeste 0 969 -- 32
2020-06-14 11:00:00 21.7 8 Sudoeste 15 Oeste 0 969 -- 34
2020-06-14 10:00:00 19.8 4 Este 8 Norte 0 968.7 -- 44
2020-06-14 09:00:00 15.9 2 Este 6 Norte 0 968.1 -- 58
2020-06-14 08:00:00 13.2 2 Nordeste 6 Sudoeste 0 967.7 -- 68
2020-06-14 07:00:00 10.4 0 Calma 4 Norte 0 967.4 -- 73
2020-06-14 06:00:00 11 0 Calma 4 Nordeste 0 967 -- 70
2020-06-14 05:00:00 12.4 0 Calma 9 Sudoeste 0 966.8 -- 65
2020-06-14 04:00:00 11.9 4 Oeste 8 Oeste 0 966.7 -- 67
2020-06-14 03:00:00 13.7 4 Sur 7 Sudeste 0 966.6 -- 60
2020-06-14 02:00:00 13.6 2 Este 5 Sudoeste 0 966.8 -- 58
2020-06-14 01:00:00 15 3 Sudoeste 6 Sur 0 966.6 -- 52
2020-06-14 00:00:00 16.4 5 Sur 7 Sur 0 966.6 -- 45
2020-06-13 23:00:00 17.3 5 Sur 8 Noroeste 0 966.1 -- 43
2020-06-13 22:00:00 19.6 8 Noroeste 19 Noroeste 0 965.7 -- 36
2020-06-13 21:00:00 22.1 15 Noroeste 27 Noroeste 0 965.4 -- 29
2020-06-13 20:00:00 23 12 Oeste 22 Oeste 0 965.4 -- 27
2020-06-13 19:00:00 22.1 9 Oeste 22 Oeste 0 965.2 -- 30
2020-06-13 18:00:00 23.7 13 Oeste 35 Oeste 0 965.1 -- 27
2020-06-13 17:00:00 23.9 9 Sudoeste 27 Oeste 0 965 -- 26
2020-06-13 16:00:00 23.4 16 Oeste 28 Oeste 0 965.3 -- 27
2020-06-13 15:00:00 22.8 12 Sudoeste 27 Oeste 0 965.4 -- 32
2020-06-13 14:00:00 22.3 12 Sudoeste 25 Oeste 0 965.5 -- 34
2020-06-13 13:00:00 20.9 12 Sudoeste 21 Sudoeste 0 965.4 -- 38
2020-06-13 12:00:00 18.9 12 Oeste 24 Noroeste 0 965.3 -- 47
2020-06-13 11:00:00 17.4 13 Oeste 21 Oeste 0 965.1 -- 52
2020-06-13 10:00:00 15.8 8 Oeste 16 Oeste 0 964.7 -- 58
2020-06-13 09:00:00 14.4 7 Sudoeste 14 Sudoeste 0 964.2 -- 66
2020-06-13 08:00:00 12.5 6 Oeste 21 Sudoeste 0 963.9 -- 76
2020-06-13 07:00:00 11.4 8 Sudoeste 17 Oeste 0 963.1 -- 79
2020-06-13 06:00:00 11.3 2 Sudoeste 10 Sudoeste 0 962.7 -- 79
2020-06-13 05:00:00 11.5 4 Oeste 9 Oeste 0 962.4 -- 78
2020-06-13 04:00:00 11.8 3 Sudeste 10 Sudoeste 0 962.2 -- 73
2020-06-13 03:00:00 12.7 2 Sudoeste 20 Oeste 0 962 -- 69
2020-06-13 02:00:00 13.3 9 Oeste 19 Oeste 0 962 -- 68
2020-06-13 01:00:00 14 6 Oeste 12 Oeste 0 961.7 -- 69
2020-06-13 00:00:00 13.9 3 Sudeste 13 Noroeste 0 961.4 -- 68
2020-06-12 23:00:00 15.2 7 Noroeste 28 Oeste 0 960.8 -- 63
2020-06-12 22:00:00 16 18 Oeste 32 Noroeste 0 959.8 -- 53
2020-06-12 21:00:00 15.9 21 Noroeste 50 Oeste 0 959.1 -- 56
2020-06-12 20:00:00 20.7 17 Oeste 38 Sudoeste 0 957.6 -- 34
2020-06-12 19:00:00 21.7 21 Oeste 42 Oeste 0 957.4 -- 30
2020-06-12 18:00:00 21 18 Sudoeste 33 Oeste 0 957.3 -- 32
2020-06-12 17:00:00 20.4 13 Oeste 42 Sudoeste 0 957.4 -- 34
2020-06-12 16:00:00 18.9 17 Sudoeste 35 Sudoeste 0 957.8 -- 40
2020-06-12 15:00:00 19 15 Sudoeste 32 Oeste 0 958.1 -- 42
2020-06-12 14:00:00 19 16 Sudoeste 28 Sudoeste 0 958.2 -- 41
2020-06-12 13:00:00 17 16 Sudoeste 30 Sudoeste 0 958.5 -- 48
2020-06-12 12:00:00 17 9 Oeste 26 Oeste 0 958.4 -- 47
2020-06-12 11:00:00 16.6 17 Oeste 29 Oeste 0 958.5 -- 48
2020-06-12 10:00:00 14.3 13 Oeste 28 Oeste 0 958.4 -- 58
2020-06-12 09:00:00 13.2 13 Oeste 29 Sudoeste 0 958.1 -- 64
2020-06-12 08:00:00 11.6 15 Oeste 27 Sudoeste 0 957.9 -- 72
2020-06-12 07:00:00 10.8 12 Sudoeste 25 Oeste 0 957.7 -- 70
2020-06-12 06:00:00 11.6 17 Oeste 30 Oeste 0 957.5 -- 65
2020-06-12 05:00:00 12.7 14 Oeste 29 Oeste 0 957 -- 58
2020-06-12 04:00:00 13.7 18 Oeste 40 Oeste 0 957.1 -- 57
2020-06-12 03:00:00 13.9 22 Oeste 40 Oeste 0 957.2 -- 51
2020-06-12 02:00:00 14.9 17 Oeste 40 Oeste 0 957.4 -- 49
2020-06-12 01:00:00 15.9 23 Noroeste 38 Oeste 0 957.5 -- 54
2020-06-12 00:00:00 17.3 18 Oeste 36 Oeste 0 957.4 -- 49
2020-06-11 23:00:00 18.1 25 Oeste 38 Oeste 0 957.1 -- 50
2020-06-11 22:00:00 18.5 21 Oeste 47 Oeste 0 956.5 -- 55
2020-06-11 21:00:00 20.4 23 Oeste 48 Oeste 0 956.3 -- 49
2020-06-11 20:00:00 21.9 23 Oeste 55 Oeste 0 956.1 -- 39
2020-06-11 19:00:00 22.7 25 Oeste 49 Oeste 0 956.2 -- 36
2020-06-11 18:00:00 24.3 30 Oeste 57 Oeste 0 956.3 -- 33
2020-06-11 17:00:00 23.4 19 Oeste 44 Oeste 0 956.7 -- 37
2020-06-11 16:00:00 24.5 21 Oeste 43 Sudoeste 0 957.3 -- 32
2020-06-11 15:00:00 23.6 20 Oeste 38 Oeste 0 958.1 -- 28
2020-06-11 14:00:00 22.7 20 Oeste 48 Oeste 0 958.8 -- 32
2020-06-11 13:00:00 21.7 17 Oeste 32 Oeste 0 959.3 -- 35
2020-06-11 12:00:00 19.5 15 Oeste 31 Oeste 0 959.7 -- 44
2020-06-11 11:00:00 17.4 10 Oeste 23 Sudoeste 0 960.2 -- 54
2020-06-11 10:00:00 15.3 10 Sudoeste 24 Oeste 0 960.8 -- 62
2020-06-11 09:00:00 13.9 10 Oeste 28 Sudoeste 0 960.8 -- 68
2020-06-11 08:00:00 13.9 12 Sudoeste 22 Sudoeste 0 961 -- 66
2020-06-11 07:00:00 13.4 9 Sudoeste 18 Sudoeste 0 960.9 -- 63
2020-06-11 06:00:00 14.4 11 Sudoeste 20 Sudoeste 0 960.9 -- 61
2020-06-11 05:00:00 15.9 9 Sudoeste 18 Sudoeste 0 961.1 -- 58
2020-06-11 04:00:00 17.3 12 Oeste 26 Oeste 0 961.5 -- 57
2020-06-11 03:00:00 18.4 15 Oeste 27 Sudoeste 0 961.8 -- 51
2020-06-11 02:00:00 19.5 13 Oeste 28 Oeste 0 962.2 -- 43
2020-06-11 01:00:00 20.6 10 Sudoeste 24 Sudoeste 0 962.4 -- 30
2020-06-11 00:00:00 21.6 8 Oeste 22 Oeste 0 962.3 -- 26